createdAt,value
2023-11-15T00:01:36.298Z,21.13
2023-11-15T00:04:06.637Z,19.33
2023-11-15T00:06:38.876Z,19.42
2023-11-15T00:09:10.540Z,18.80
2023-11-15T00:11:39.794Z,19.85
2023-11-15T00:14:09.763Z,19.13
2023-11-15T00:16:40.478Z,18.88
2023-11-15T00:19:10.920Z,16.73
2023-11-15T00:21:43.950Z,14.95
2023-11-15T00:24:14.704Z,17.33
2023-11-15T00:26:43.658Z,16.02
2023-11-15T00:29:15.961Z,16.40
2023-11-15T00:31:44.611Z,15.32
2023-11-15T00:34:16.008Z,14.27
2023-11-15T00:36:46.507Z,13.32
2023-11-15T00:39:18.901Z,14.27
2023-11-15T00:41:47.846Z,12.27
2023-11-15T00:44:19.415Z,11.80
2023-11-15T00:46:48.606Z,11.10
2023-11-15T00:49:21.060Z,11.75
2023-11-15T00:51:55.649Z,8.93
2023-11-15T00:54:28.724Z,10.05
2023-11-15T00:56:59.263Z,8.57
2023-11-15T00:59:39.585Z,7.82
2023-11-15T01:02:09.174Z,9.68
2023-11-15T01:04:39.025Z,6.70
2023-11-15T01:07:08.749Z,6.25
2023-11-15T01:09:41.170Z,6.18
2023-11-15T01:12:10.241Z,7.07
2023-11-15T01:14:42.068Z,7.13
2023-11-15T01:17:14.392Z,7.15
2023-11-15T01:19:42.946Z,7.35
2023-11-15T01:22:12.320Z,7.53
2023-11-15T01:24:44.517Z,7.93
2023-11-15T01:27:14.897Z,7.75
2023-11-15T01:29:43.862Z,8.23
2023-11-15T01:32:18.298Z,8.38
2023-11-15T01:34:46.826Z,7.78
2023-11-15T01:37:16.816Z,8.07
2023-11-15T01:39:52.082Z,8.73
2023-11-15T01:42:23.810Z,9.23
2023-11-15T01:47:22.804Z,8.77
2023-11-15T01:49:53.092Z,9.38
2023-11-15T01:52:23.736Z,9.40
2023-11-15T01:54:56.057Z,10.13
2023-11-15T01:57:27.770Z,10.07
2023-11-15T01:59:57.153Z,10.18
2023-11-15T02:02:26.413Z,11.25
2023-11-15T02:04:57.278Z,10.85
2023-11-15T02:07:25.877Z,10.20
2023-11-15T02:09:57.269Z,10.60
2023-11-15T02:12:29.212Z,10.25
2023-11-15T02:14:59.162Z,10.48
2023-11-15T02:17:29.490Z,10.23
2023-11-15T02:19:57.853Z,11.00
2023-11-15T02:22:28.262Z,10.25
2023-11-15T02:24:59.422Z,10.80
2023-11-15T02:27:28.809Z,11.18
2023-11-15T02:29:57.528Z,10.57
2023-11-15T02:32:26.508Z,12.30
2023-11-15T02:34:58.140Z,12.05
2023-11-15T02:37:29.023Z,12.20
2023-11-15T02:40:02.361Z,11.75
2023-11-15T02:42:30.738Z,12.13
2023-11-15T02:44:59.817Z,11.73
2023-11-15T02:47:29.524Z,12.35
2023-11-15T02:49:58.931Z,13.07
2023-11-15T02:52:29.520Z,13.23
2023-11-15T02:55:00.080Z,13.10
2023-11-15T02:57:28.755Z,13.55
2023-11-15T02:59:57.418Z,13.63
2023-11-15T03:02:29.395Z,12.95
2023-11-15T03:05:00.805Z,12.65
2023-11-15T03:07:29.472Z,12.63
2023-11-15T03:10:00.279Z,12.93
2023-11-15T03:12:34.812Z,13.40
2023-11-15T03:15:06.547Z,13.68
2023-11-15T03:17:39.720Z,13.07
2023-11-15T03:20:12.204Z,13.63
2023-11-15T03:22:43.227Z,13.52
2023-11-15T03:25:13.289Z,13.30
2023-11-15T03:27:43.137Z,13.45
2023-11-15T03:30:13.448Z,14.30
2023-11-15T03:32:43.379Z,14.35
2023-11-15T03:35:15.001Z,16.58
2023-11-15T03:37:43.385Z,15.63
2023-11-15T03:40:15.478Z,15.00
2023-11-15T03:42:51.990Z,14.85
2023-11-15T03:45:21.557Z,14.68
2023-11-15T03:47:54.231Z,14.90
2023-11-15T03:50:22.838Z,14.52
2023-11-15T03:52:51.866Z,14.25
2023-11-15T03:55:23.486Z,14.45
2023-11-15T03:57:57.613Z,14.32
2023-11-15T04:00:30.057Z,13.88
2023-11-15T04:03:00.244Z,14.80
2023-11-15T04:05:33.963Z,15.23
2023-11-15T04:08:03.004Z,15.98
2023-11-15T04:10:33.095Z,15.80
2023-11-15T04:13:03.997Z,16.33
2023-11-15T04:15:39.647Z,16.27
2023-11-15T04:18:10.461Z,15.15
2023-11-15T04:20:41.629Z,15.35
2023-11-15T04:23:13.033Z,16.17
2023-11-15T04:25:44.966Z,17.08
2023-11-15T04:28:16.333Z,16.98
2023-11-15T04:30:55.741Z,15.93
2023-11-15T04:33:25.719Z,15.57
2023-11-15T04:35:57.389Z,16.15
2023-11-15T04:38:27.871Z,16.15
2023-11-15T04:41:02.121Z,16.48
2023-11-15T04:43:34.136Z,17.80
2023-11-15T04:46:07.169Z,18.70
2023-11-15T04:48:36.634Z,19.77
2023-11-15T04:51:08.028Z,20.42
2023-11-15T04:53:42.591Z,18.92
2023-11-15T04:56:14.519Z,20.85
2023-11-15T04:58:43.197Z,21.60
2023-11-15T05:01:15.074Z,22.13
2023-11-15T05:03:44.110Z,22.38
2023-11-15T05:06:12.964Z,22.38
2023-11-15T05:08:41.194Z,22.95
2023-11-15T05:11:12.615Z,25.23
2023-11-15T05:13:44.168Z,27.52
2023-11-15T05:16:13.767Z,25.38
2023-11-15T05:18:43.928Z,25.50
2023-11-15T05:21:12.781Z,24.58
2023-11-15T05:23:43.282Z,23.58
2023-11-15T05:26:18.896Z,22.67
2023-11-15T05:28:48.847Z,23.17
2023-11-15T05:31:18.992Z,21.23
2023-11-15T05:33:55.613Z,20.15
2023-11-15T05:36:24.125Z,21.92
2023-11-15T05:38:54.061Z,21.23
2023-11-15T05:41:27.773Z,19.40
2023-11-15T05:44:00.600Z,18.23
2023-11-15T05:46:29.509Z,18.60
2023-11-15T05:49:02.553Z,17.88
2023-11-15T05:51:35.558Z,17.23
2023-11-15T05:54:08.591Z,17.30
2023-11-15T05:56:37.066Z,15.88
2023-11-15T05:59:07.440Z,15.07
2023-11-15T06:01:47.151Z,14.73
2023-11-15T06:04:23.057Z,14.20
2023-11-15T06:06:51.363Z,13.98
2023-11-15T06:09:20.561Z,15.13
2023-11-15T06:11:49.451Z,14.18
2023-11-15T06:14:20.414Z,13.85
2023-11-15T06:16:51.874Z,13.70
2023-11-15T06:19:24.635Z,13.82
2023-11-15T06:21:54.511Z,14.10
2023-11-15T06:24:24.699Z,13.73
2023-11-15T06:26:54.504Z,14.52
2023-11-15T06:29:28.146Z,13.02
2023-11-15T06:32:01.820Z,13.15
2023-11-15T06:34:32.552Z,13.48
2023-11-15T06:37:01.358Z,14.15
2023-11-15T06:39:31.185Z,11.85
2023-11-15T06:42:02.239Z,12.13
2023-11-15T06:44:35.491Z,10.68
2023-11-15T06:47:10.547Z,8.30
2023-11-15T06:49:39.513Z,7.05
2023-11-15T06:52:10.144Z,5.38
2023-11-15T06:54:40.920Z,4.68
2023-11-15T06:57:11.474Z,3.90
2023-11-15T06:59:45.644Z,4.07
2023-11-15T07:02:19.895Z,3.10
2023-11-15T07:04:53.822Z,2.88
2023-11-15T07:07:25.085Z,2.47
2023-11-15T07:09:55.820Z,2.67
2023-11-15T07:12:26.561Z,2.40
2023-11-15T07:14:59.360Z,2.45
2023-11-15T07:17:29.382Z,2.60
2023-11-15T07:20:01.557Z,2.67
2023-11-15T07:22:44.321Z,2.60
2023-11-15T07:25:19.256Z,3.63
2023-11-15T07:27:56.363Z,3.35
2023-11-15T07:30:26.420Z,3.28
2023-11-15T07:32:57.054Z,2.60
2023-11-15T07:35:27.051Z,2.17
2023-11-15T07:37:59.188Z,2.15
2023-11-15T07:40:33.124Z,2.80
2023-11-15T07:43:03.315Z,2.00
2023-11-15T07:45:35.071Z,1.60
2023-11-15T07:48:06.736Z,1.52
2023-11-15T07:50:37.159Z,1.60
2023-11-15T07:53:08.104Z,2.00
2023-11-15T07:55:40.265Z,1.20
2023-11-15T07:58:12.449Z,1.40
2023-11-15T08:00:42.934Z,1.33
2023-11-15T08:03:14.437Z,1.52
2023-11-15T08:05:48.467Z,1.30
2023-11-15T08:08:20.264Z,1.55
2023-11-15T08:13:25.263Z,1.30
2023-11-15T08:15:57.656Z,1.30
2023-11-15T08:18:32.207Z,1.20
2023-11-15T08:21:06.748Z,1.40
2023-11-15T08:23:39.513Z,1.70
2023-11-15T08:26:12.865Z,1.98
2023-11-15T08:28:42.028Z,3.70
2023-11-15T08:31:17.518Z,2.42
2023-11-15T08:33:48.319Z,3.17
2023-11-15T08:36:20.118Z,1.77
2023-11-15T08:38:52.330Z,2.88
2023-11-15T08:41:23.705Z,2.65
2023-11-15T08:43:54.870Z,1.88
2023-11-15T08:46:29.625Z,1.73
2023-11-15T08:49:01.930Z,2.30
2023-11-15T08:51:33.251Z,1.63
2023-11-15T08:54:01.964Z,2.22
2023-11-15T08:56:38.410Z,1.50
2023-11-15T08:59:15.407Z,1.27
2023-11-15T09:01:51.723Z,1.23
2023-11-15T09:04:23.973Z,1.30
2023-11-15T09:06:57.382Z,1.40
2023-11-15T09:09:28.381Z,1.42
2023-11-15T09:12:08.795Z,1.60
2023-11-15T09:14:41.278Z,1.70
2023-11-15T09:17:17.510Z,1.50
2023-11-15T09:19:53.320Z,1.30
2023-11-15T09:22:22.292Z,1.20
2023-11-15T09:25:03.575Z,1.40
2023-11-15T09:27:39.745Z,1.40
2023-11-15T09:30:19.422Z,1.45
2023-11-15T09:32:52.201Z,1.48
2023-11-15T09:35:24.425Z,1.40
2023-11-15T09:37:56.315Z,1.48
2023-11-15T09:40:28.199Z,1.42
2023-11-15T09:43:01.365Z,1.38
2023-11-15T09:45:35.850Z,1.30
2023-11-15T09:48:11.480Z,1.20
2023-11-15T09:50:49.969Z,1.50
2023-11-15T09:53:26.511Z,1.20
2023-11-15T09:56:05.862Z,1.60
2023-11-15T09:58:36.495Z,1.50
2023-11-15T10:01:12.057Z,1.40
2023-11-15T10:03:45.958Z,1.30
2023-11-15T10:06:18.534Z,1.27
2023-11-15T10:08:59.008Z,1.27
2023-11-15T10:11:31.031Z,1.20
2023-11-15T10:14:10.693Z,1.20
2023-11-15T10:16:44.101Z,1.05
2023-11-15T10:19:30.756Z,1.30
2023-11-15T10:22:06.943Z,1.30
2023-11-15T10:24:39.173Z,1.23
2023-11-15T10:27:16.260Z,1.50
2023-11-15T10:29:48.286Z,1.48
2023-11-15T10:32:39.892Z,2.42
2023-11-15T10:35:28.615Z,1.20
2023-11-15T10:38:14.183Z,1.23
2023-11-15T10:40:50.658Z,1.27
2023-11-15T10:43:21.651Z,1.50
2023-11-15T10:45:57.020Z,1.10
2023-11-15T10:48:34.681Z,1.13
2023-11-15T10:51:14.828Z,1.08
2023-11-15T10:53:45.760Z,1.30
2023-11-15T10:56:17.261Z,1.20
2023-11-15T10:58:51.171Z,1.30
2023-11-15T11:01:30.578Z,1.20
2023-11-15T11:04:00.833Z,1.23
2023-11-15T11:06:40.390Z,1.30
2023-11-15T11:09:18.840Z,1.38
2023-11-15T11:11:59.169Z,1.20
2023-11-15T11:14:32.359Z,0.98
2023-11-15T11:17:04.366Z,1.20
2023-11-15T11:19:43.674Z,1.00
2023-11-15T11:22:16.148Z,1.20
2023-11-15T11:25:24.142Z,1.20
2023-11-15T11:27:59.089Z,1.20
2023-11-15T11:30:29.428Z,1.27
2023-11-15T11:33:16.999Z,1.13
2023-11-15T11:35:49.620Z,1.20
2023-11-15T11:38:44.381Z,1.20
2023-11-15T11:41:16.368Z,1.20
2023-11-15T11:43:45.907Z,1.10
2023-11-15T11:46:21.909Z,1.15
2023-11-15T11:49:06.660Z,1.20
2023-11-15T11:51:41.638Z,1.17
2023-11-15T11:54:25.248Z,1.27
2023-11-15T11:56:56.747Z,1.40
2023-11-15T11:59:30.768Z,1.20
2023-11-15T12:02:01.167Z,1.08
2023-11-15T12:04:33.714Z,1.30
2023-11-15T12:07:06.606Z,1.25
2023-11-15T12:09:46.352Z,1.20
2023-11-15T12:12:24.730Z,1.33
2023-11-15T12:14:59.858Z,1.17
2023-11-15T12:17:41.219Z,1.30
2023-11-15T12:20:14.101Z,1.00
2023-11-15T12:22:51.121Z,1.20
2023-11-15T12:25:24.671Z,1.30
2023-11-15T12:27:55.911Z,1.30
2023-11-15T12:30:27.997Z,1.42
2023-11-15T12:33:01.862Z,1.40
2023-11-15T12:35:38.669Z,1.30
2023-11-15T12:38:13.308Z,1.20
2023-11-15T12:40:46.291Z,1.30
2023-11-15T12:43:20.763Z,1.10
2023-11-15T12:45:52.623Z,1.30
2023-11-15T12:51:03.819Z,1.40
2023-11-15T12:53:37.168Z,1.30
2023-11-15T12:56:20.286Z,1.30
2023-11-15T12:58:55.602Z,1.30
2023-11-15T13:01:29.324Z,1.20
2023-11-15T13:04:02.579Z,1.30
2023-11-15T13:06:43.120Z,1.30
2023-11-15T13:09:16.698Z,1.30
2023-11-15T13:11:48.477Z,1.20
2023-11-15T13:14:26.079Z,1.33
2023-11-15T13:16:59.439Z,1.30
2023-11-15T13:19:29.384Z,1.20
2023-11-15T13:22:05.798Z,1.33
2023-11-15T13:24:34.442Z,1.30
2023-11-15T13:27:04.427Z,1.55
2023-11-15T13:29:38.339Z,1.20
2023-11-15T13:32:11.917Z,1.15
2023-11-15T13:34:45.070Z,1.42
2023-11-15T13:37:25.635Z,1.35
2023-11-15T13:39:57.594Z,1.23
2023-11-15T13:42:34.616Z,1.40
2023-11-15T13:45:08.022Z,1.48
2023-11-15T13:47:38.339Z,1.27
2023-11-15T13:50:10.923Z,1.38
2023-11-15T13:52:42.091Z,1.23
2023-11-15T13:55:13.265Z,1.40
2023-11-15T13:57:52.786Z,1.30
2023-11-15T14:00:29.215Z,1.50
2023-11-15T14:03:00.486Z,1.30
2023-11-15T14:05:31.746Z,1.52
2023-11-15T14:08:01.717Z,1.50
2023-11-15T14:10:32.803Z,1.67
2023-11-15T14:13:07.171Z,1.60
2023-11-15T14:15:38.312Z,1.77
2023-11-15T14:18:11.725Z,1.55
2023-11-15T14:20:41.081Z,1.80
2023-11-15T14:23:09.747Z,1.50
2023-11-15T14:25:38.465Z,1.70
2023-11-15T14:28:09.085Z,1.70
2023-11-15T14:30:41.164Z,1.67
2023-11-15T14:35:45.217Z,1.65
2023-11-15T14:40:45.658Z,1.50
2023-11-15T14:43:18.633Z,1.50
2023-11-15T14:45:47.939Z,3.13
2023-11-15T14:48:19.954Z,3.10
2023-11-15T14:50:54.538Z,2.42
2023-11-15T14:53:37.993Z,1.90
2023-11-15T14:56:12.136Z,2.92
2023-11-15T14:58:42.581Z,2.90
2023-11-15T15:01:15.352Z,2.30
2023-11-15T15:03:47.884Z,2.10
2023-11-15T15:06:17.387Z,1.95
2023-11-15T15:08:48.672Z,1.85
2023-11-15T15:11:20.190Z,1.92
2023-11-15T15:13:52.196Z,1.98
2023-11-15T15:16:23.042Z,2.00
2023-11-15T15:18:53.616Z,2.03
2023-11-15T15:21:22.917Z,1.98
2023-11-15T15:23:58.613Z,1.98
2023-11-15T15:26:37.294Z,2.25
2023-11-15T15:29:18.688Z,1.85
2023-11-15T15:31:56.805Z,1.80
2023-11-15T15:34:32.364Z,1.90
2023-11-15T15:37:04.140Z,2.30
2023-11-15T15:39:35.295Z,2.70
2023-11-15T15:42:06.290Z,2.88
2023-11-15T15:44:39.316Z,2.30
2023-11-15T15:47:11.774Z,2.30
2023-11-15T15:49:46.591Z,2.65
2023-11-15T15:52:17.161Z,2.20
2023-11-15T15:54:48.008Z,2.50
2023-11-15T15:57:25.139Z,2.30
2023-11-15T15:59:55.323Z,2.40
2023-11-15T16:02:24.831Z,2.60
2023-11-15T16:04:53.715Z,2.70
2023-11-15T16:07:24.140Z,4.15
2023-11-15T16:09:54.253Z,3.03
2023-11-15T16:12:24.702Z,3.00
2023-11-15T16:14:58.509Z,3.10
2023-11-15T16:17:28.626Z,3.05
2023-11-15T16:19:58.993Z,2.70
2023-11-15T16:22:28.311Z,3.10
2023-11-15T16:24:58.315Z,2.08
2023-11-15T16:27:34.484Z,2.13
2023-11-15T16:30:21.085Z,2.45
2023-11-15T16:32:54.775Z,2.10
2023-11-15T16:35:23.391Z,2.03
2023-11-15T16:40:24.886Z,2.47
2023-11-15T16:42:53.943Z,2.20
2023-11-15T16:45:28.184Z,2.20
2023-11-15T16:47:59.776Z,2.10
2023-11-15T16:50:28.211Z,2.60
2023-11-15T16:52:57.659Z,2.35
2023-11-15T16:55:27.932Z,3.40
2023-11-15T16:57:58.536Z,3.33
2023-11-15T17:00:31.983Z,2.60
2023-11-15T17:03:00.583Z,2.80
2023-11-15T17:05:33.404Z,2.13
2023-11-15T17:08:08.456Z,2.40
2023-11-15T17:10:38.349Z,3.10
2023-11-15T17:13:07.231Z,2.58
2023-11-15T17:15:40.116Z,2.63
2023-11-15T17:18:09.125Z,2.40
2023-11-15T17:20:41.617Z,2.28
2023-11-15T17:23:12.113Z,2.60
2023-11-15T17:25:40.991Z,2.13
2023-11-15T17:28:11.593Z,2.22
2023-11-15T17:30:41.503Z,2.20
2023-11-15T17:33:10.536Z,2.42
2023-11-15T17:35:40.452Z,2.13
2023-11-15T17:38:12.718Z,2.10
2023-11-15T17:40:45.997Z,2.33
2023-11-15T17:43:18.090Z,2.20
2023-11-15T17:45:51.004Z,2.03
2023-11-15T17:48:20.527Z,2.47
2023-11-15T17:50:51.908Z,2.25
2023-11-15T17:53:22.571Z,2.38
2023-11-15T17:55:52.254Z,2.50
2023-11-15T17:58:21.040Z,2.10
2023-11-15T18:01:05.749Z,2.50
2023-11-15T18:03:35.742Z,2.03
2023-11-15T18:06:05.334Z,2.30
2023-11-15T18:08:34.290Z,2.20
2023-11-15T18:11:04.876Z,2.30
2023-11-15T18:13:34.079Z,2.33
2023-11-15T18:16:05.824Z,2.30
2023-11-15T18:18:35.239Z,2.55
2023-11-15T18:21:04.545Z,2.60
2023-11-15T18:23:36.146Z,2.72
2023-11-15T18:26:06.408Z,2.30
2023-11-15T18:28:39.218Z,2.50
2023-11-15T18:31:09.591Z,2.20
2023-11-15T18:33:40.372Z,2.08
2023-11-15T18:36:12.298Z,2.33
2023-11-15T18:41:13.773Z,2.40
2023-11-15T18:43:45.293Z,2.40
2023-11-15T18:46:23.881Z,2.30
2023-11-15T18:48:54.341Z,2.50
2023-11-15T18:51:29.705Z,2.60
2023-11-15T18:54:04.843Z,2.45
2023-11-15T18:56:33.148Z,2.25
2023-11-15T18:59:03.191Z,2.40
2023-11-15T19:01:33.776Z,2.13
2023-11-15T19:04:02.716Z,2.10
2023-11-15T19:06:34.548Z,2.20
2023-11-15T19:09:02.911Z,2.20
2023-11-15T19:11:32.417Z,2.30
2023-11-15T19:14:04.469Z,2.30
2023-11-15T19:16:36.860Z,2.20
2023-11-15T19:19:09.587Z,2.47
2023-11-15T19:21:38.807Z,2.20
2023-11-15T19:24:14.638Z,2.42
2023-11-15T19:26:46.094Z,2.30
2023-11-15T19:29:17.566Z,2.28
2023-11-15T19:31:49.421Z,2.70
2023-11-15T19:34:18.725Z,2.15
2023-11-15T19:36:47.071Z,2.30
2023-11-15T19:39:16.055Z,2.30
2023-11-15T19:41:44.746Z,2.58
2023-11-15T19:44:15.765Z,2.35
2023-11-15T19:46:46.350Z,2.45
2023-11-15T19:49:20.191Z,2.42
2023-11-15T19:51:53.577Z,2.30
2023-11-15T19:54:23.921Z,2.50
2023-11-15T19:56:59.727Z,2.67
2023-11-15T19:59:28.554Z,2.55
2023-11-15T20:01:57.564Z,2.47
2023-11-15T20:04:32.831Z,2.50
2023-11-15T20:07:03.301Z,2.30
2023-11-15T20:09:33.808Z,2.33
2023-11-15T20:12:09.016Z,2.22
2023-11-15T20:14:37.882Z,2.40
2023-11-15T20:17:07.078Z,2.30
2023-11-15T20:19:44.683Z,2.25
2023-11-15T20:22:13.499Z,2.40
2023-11-15T20:24:46.958Z,2.60
2023-11-15T20:27:17.504Z,2.60
2023-11-15T20:29:45.711Z,3.00
2023-11-15T20:32:18.034Z,4.53
2023-11-15T20:34:48.122Z,2.70
2023-11-15T20:37:21.485Z,3.10
2023-11-15T20:39:51.966Z,2.63
2023-11-15T20:42:24.476Z,2.70
2023-11-15T20:44:57.264Z,3.15
2023-11-15T20:47:25.825Z,3.20
2023-11-15T20:49:55.722Z,2.60
2023-11-15T20:52:26.512Z,2.60
2023-11-15T20:54:55.551Z,3.00
2023-11-15T20:57:28.406Z,3.10
2023-11-15T21:00:03.088Z,3.10
2023-11-15T21:02:34.218Z,3.20
2023-11-15T21:05:04.620Z,2.97
2023-11-15T21:07:33.687Z,3.30
2023-11-15T21:10:10.269Z,3.00
2023-11-15T21:12:43.612Z,2.60
2023-11-15T21:15:14.852Z,2.80
2023-11-15T21:17:44.965Z,3.00
2023-11-15T21:20:15.978Z,2.45
2023-11-15T21:22:45.019Z,2.70
2023-11-15T21:25:14.237Z,2.65
2023-11-15T21:27:51.341Z,2.65
2023-11-15T21:30:20.073Z,2.55
2023-11-15T21:32:52.559Z,2.58
2023-11-15T21:35:26.142Z,2.40
2023-11-15T21:37:55.659Z,2.40
2023-11-15T21:40:24.358Z,2.42
2023-11-15T21:42:53.246Z,2.25
2023-11-15T21:45:21.909Z,2.70
2023-11-15T21:47:56.442Z,2.80
2023-11-15T21:50:29.619Z,3.28
2023-11-15T21:53:01.220Z,2.33
2023-11-15T21:55:29.670Z,2.30
2023-11-15T21:58:08.044Z,2.47
2023-11-15T22:00:39.285Z,2.30
2023-11-15T22:03:08.384Z,2.20
2023-11-15T22:05:41.762Z,2.25
2023-11-15T22:08:12.320Z,2.17
2023-11-15T22:10:47.160Z,2.30
2023-11-15T22:13:16.831Z,2.10
2023-11-15T22:15:45.189Z,2.33
2023-11-15T22:18:14.497Z,2.00
2023-11-15T22:20:48.118Z,2.30
2023-11-15T22:23:16.868Z,2.20
2023-11-15T22:25:46.234Z,2.28
2023-11-15T22:28:22.055Z,2.00
2023-11-15T22:30:53.372Z,2.20
2023-11-15T22:33:22.128Z,2.00
2023-11-15T22:35:52.228Z,2.15
2023-11-15T22:38:20.697Z,2.00
2023-11-15T22:40:50.219Z,2.05
2023-11-15T22:43:20.374Z,2.38
2023-11-15T22:45:49.470Z,2.17
2023-11-15T22:48:22.838Z,2.10
2023-11-15T22:50:52.557Z,2.10
2023-11-15T22:53:21.383Z,2.17
2023-11-15T22:55:53.229Z,2.40
2023-11-15T22:58:22.535Z,2.20
2023-11-15T23:00:55.872Z,2.28
2023-11-15T23:03:25.808Z,2.20
2023-11-15T23:05:58.193Z,2.25
2023-11-15T23:08:31.609Z,2.47
2023-11-15T23:11:01.674Z,2.80
2023-11-15T23:13:32.298Z,2.13
2023-11-15T23:16:01.741Z,2.55
2023-11-15T23:18:30.770Z,2.38
2023-11-15T23:21:19.947Z,2.28
2023-11-15T23:23:52.907Z,2.20
2023-11-15T23:26:25.523Z,2.10
2023-11-15T23:28:55.595Z,2.60
2023-11-15T23:31:25.442Z,2.30
2023-11-15T23:33:58.676Z,2.13
2023-11-15T23:36:32.247Z,2.05
2023-11-15T23:39:06.290Z,2.10
2023-11-15T23:41:39.840Z,2.50
2023-11-15T23:44:14.639Z,2.40
2023-11-15T23:46:50.965Z,2.15
2023-11-15T23:49:24.145Z,2.30
2023-11-15T23:51:54.067Z,2.45
2023-11-15T23:54:22.846Z,2.42
2023-11-15T23:56:52.045Z,2.53
2023-11-15T23:59:22.282Z,2.10
